sensor_id;sensor_type;location;lat;lon;timestamp;temperature;humidity
63051;SHT30;49136;47.416;19.402;2024-01-30T00:01:42;-3.44;99.99
63051;SHT30;49136;47.416;19.402;2024-01-30T00:04:10;-3.45;99.99
63051;SHT30;49136;47.416;19.402;2024-01-30T00:06:36;-3.66;99.99
63051;SHT30;49136;47.416;19.402;2024-01-30T00:09:01;-3.79;99.99
63051;SHT30;49136;47.416;19.402;2024-01-30T00:11:28;-3.89;99.99
63051;SHT30;49136;47.416;19.402;2024-01-30T00:13:54;-3.98;99.99
63051;SHT30;49136;47.416;19.402;2024-01-30T00:16:25;-4.04;99.99
63051;SHT30;49136;47.416;19.402;2024-01-30T00:18:51;-4.15;99.99
63051;SHT30;49136;47.416;19.402;2024-01-30T00:21:17;-4.19;99.99
63051;SHT30;49136;47.416;19.402;2024-01-30T00:23:43;-4.22;99.99
63051;SHT30;49136;47.416;19.402;2024-01-30T00:26:08;-4.32;99.99
63051;SHT30;49136;47.416;19.402;2024-01-30T00:28:34;-4.36;99.99
63051;SHT30;49136;47.416;19.402;2024-01-30T00:30:59;-4.36;99.99
63051;SHT30;49136;47.416;19.402;2024-01-30T00:33:24;-4.42;99.99
63051;SHT30;49136;47.416;19.402;2024-01-30T00:35:50;-4.45;99.99
63051;SHT30;49136;47.416;19.402;2024-01-30T00:38:15;-4.46;99.99
63051;SHT30;49136;47.416;19.402;2024-01-30T00:40:41;-4.49;99.99
63051;SHT30;49136;47.416;19.402;2024-01-30T00:43:06;-4.53;99.99
63051;SHT30;49136;47.416;19.402;2024-01-30T00:45:31;-4.53;99.99
63051;SHT30;49136;47.416;19.402;2024-01-30T00:47:57;-4.36;99.99
63051;SHT30;49136;47.416;19.402;2024-01-30T00:50:22;-4.32;99.99
63051;SHT30;49136;47.416;19.402;2024-01-30T00:52:48;-4.08;99.99
63051;SHT30;49136;47.416;19.402;2024-01-30T00:55:13;-3.98;99.99
63051;SHT30;49136;47.416;19.402;2024-01-30T00:57:39;-4.04;99.99
63051;SHT30;49136;47.416;19.402;2024-01-30T01:00:05;-3.97;99.99
63051;SHT30;49136;47.416;19.402;2024-01-30T01:02:34;-4.07;99.99
63051;SHT30;49136;47.416;19.402;2024-01-30T01:04:59;-4.19;99.99
63051;SHT30;49136;47.416;19.402;2024-01-30T01:07:25;-4.32;99.99
63051;SHT30;49136;47.416;19.402;2024-01-30T01:09:50;-4.38;99.99
63051;SHT30;49136;47.416;19.402;2024-01-30T01:12:15;-4.38;99.99
63051;SHT30;49136;47.416;19.402;2024-01-30T01:14:41;-4.42;99.99
63051;SHT30;49136;47.416;19.402;2024-01-30T01:17:07;-4.46;99.99
63051;SHT30;49136;47.416;19.402;2024-01-30T01:19:32;-4.48;99.99
63051;SHT30;49136;47.416;19.402;2024-01-30T01:21:58;-4.45;99.99
63051;SHT30;49136;47.416;19.402;2024-01-30T01:24:23;-4.44;99.99
63051;SHT30;49136;47.416;19.402;2024-01-30T01:26:49;-4.46;99.99
63051;SHT30;49136;47.416;19.402;2024-01-30T01:29:14;-4.46;99.99
63051;SHT30;49136;47.416;19.402;2024-01-30T01:31:41;-4.45;99.99
63051;SHT30;49136;47.416;19.402;2024-01-30T01:34:13;-4.36;99.99
63051;SHT30;49136;47.416;19.402;2024-01-30T01:36:39;-4.38;99.99
63051;SHT30;49136;47.416;19.402;2024-01-30T01:39:04;-4.32;99.99
63051;SHT30;49136;47.416;19.402;2024-01-30T01:41:31;-4.35;99.99
63051;SHT30;49136;47.416;19.402;2024-01-30T01:43:57;-4.48;99.99
63051;SHT30;49136;47.416;19.402;2024-01-30T01:46:22;-4.56;99.99
63051;SHT30;49136;47.416;19.402;2024-01-30T01:48:48;-4.63;99.99
63051;SHT30;49136;47.416;19.402;2024-01-30T01:51:14;-4.57;99.99
63051;SHT30;49136;47.416;19.402;2024-01-30T01:53:40;-4.60;99.99
63051;SHT30;49136;47.416;19.402;2024-01-30T01:56:06;-4.62;99.99
63051;SHT30;49136;47.416;19.402;2024-01-30T01:58:32;-4.67;99.99
63051;SHT30;49136;47.416;19.402;2024-01-30T02:00:58;-4.70;99.99
63051;SHT30;49136;47.416;19.402;2024-01-30T02:03:24;-4.65;99.99
63051;SHT30;49136;47.416;19.402;2024-01-30T02:05:53;-4.52;99.99
63051;SHT30;49136;47.416;19.402;2024-01-30T02:08:19;-4.55;99.99
63051;SHT30;49136;47.416;19.402;2024-01-30T02:10:45;-4.46;99.99
63051;SHT30;49136;47.416;19.402;2024-01-30T02:13:10;-4.59;99.99
63051;SHT30;49136;47.416;19.402;2024-01-30T02:15:36;-4.67;99.99
63051;SHT30;49136;47.416;19.402;2024-01-30T02:18:01;-4.77;99.99
63051;SHT30;49136;47.416;19.402;2024-01-30T02:20:29;-4.84;99.99
63051;SHT30;49136;47.416;19.402;2024-01-30T02:22:55;-4.85;99.99
63051;SHT30;49136;47.416;19.402;2024-01-30T02:25:39;-4.94;99.99
63051;SHT30;49136;47.416;19.402;2024-01-30T02:28:12;-5.00;99.99
63051;SHT30;49136;47.416;19.402;2024-01-30T02:30:45;-5.01;99.99
63051;SHT30;49136;47.416;19.402;2024-01-30T02:33:11;-5.04;99.99
63051;SHT30;49136;47.416;19.402;2024-01-30T02:35:36;-5.02;99.99
63051;SHT30;49136;47.416;19.402;2024-01-30T02:38:02;-5.00;99.99
63051;SHT30;49136;47.416;19.402;2024-01-30T02:40:27;-5.01;99.99
63051;SHT30;49136;47.416;19.402;2024-01-30T02:42:52;-5.00;99.99
63051;SHT30;49136;47.416;19.402;2024-01-30T02:45:18;-5.07;99.99
63051;SHT30;49136;47.416;19.402;2024-01-30T02:47:43;-5.05;99.99
63051;SHT30;49136;47.416;19.402;2024-01-30T02:50:09;-5.07;99.99
63051;SHT30;49136;47.416;19.402;2024-01-30T02:52:35;-5.12;99.99
63051;SHT30;49136;47.416;19.402;2024-01-30T02:55:01;-5.05;99.99
63051;SHT30;49136;47.416;19.402;2024-01-30T02:57:27;-4.94;99.99
63051;SHT30;49136;47.416;19.402;2024-01-30T02:59:52;-4.97;99.99
63051;SHT30;49136;47.416;19.402;2024-01-30T03:02:18;-4.97;99.99
63051;SHT30;49136;47.416;19.402;2024-01-30T03:04:43;-5.07;99.99
63051;SHT30;49136;47.416;19.402;2024-01-30T03:07:09;-5.05;99.99
63051;SHT30;49136;47.416;19.402;2024-01-30T03:09:35;-5.05;99.99
63051;SHT30;49136;47.416;19.402;2024-01-30T03:12:00;-5.05;99.99
63051;SHT30;49136;47.416;19.402;2024-01-30T03:14:26;-5.11;99.99
63051;SHT30;49136;47.416;19.402;2024-01-30T03:16:51;-5.13;99.99
63051;SHT30;49136;47.416;19.402;2024-01-30T03:19:17;-4.90;99.99
63051;SHT30;49136;47.416;19.402;2024-01-30T03:21:42;-4.91;99.99
63051;SHT30;49136;47.416;19.402;2024-01-30T03:24:07;-4.84;99.99
63051;SHT30;49136;47.416;19.402;2024-01-30T03:26:34;-4.83;99.99
63051;SHT30;49136;47.416;19.402;2024-01-30T03:28:59;-4.81;99.99
63051;SHT30;49136;47.416;19.402;2024-01-30T03:31:25;-4.94;99.99
63051;SHT30;49136;47.416;19.402;2024-01-30T03:33:50;-4.91;99.99
63051;SHT30;49136;47.416;19.402;2024-01-30T03:36:16;-4.90;99.99
63051;SHT30;49136;47.416;19.402;2024-01-30T03:38:42;-4.87;99.99
63051;SHT30;49136;47.416;19.402;2024-01-30T03:41:08;-4.94;99.99
63051;SHT30;49136;47.416;19.402;2024-01-30T03:43:34;-4.98;99.99
63051;SHT30;49136;47.416;19.402;2024-01-30T03:46:01;-4.90;99.99
63051;SHT30;49136;47.416;19.402;2024-01-30T03:48:26;-4.85;99.99
63051;SHT30;49136;47.416;19.402;2024-01-30T03:50:51;-4.94;99.99
63051;SHT30;49136;47.416;19.402;2024-01-30T03:53:17;-5.01;99.99
63051;SHT30;49136;47.416;19.402;2024-01-30T03:55:42;-4.98;99.99
63051;SHT30;49136;47.416;19.402;2024-01-30T03:58:08;-5.01;99.99
63051;SHT30;49136;47.416;19.402;2024-01-30T04:00:33;-5.02;99.99
63051;SHT30;49136;47.416;19.402;2024-01-30T04:02:59;-4.95;99.99
63051;SHT30;49136;47.416;19.402;2024-01-30T04:05:24;-4.81;99.99
63051;SHT30;49136;47.416;19.402;2024-01-30T04:07:49;-4.83;99.99
63051;SHT30;49136;47.416;19.402;2024-01-30T04:10:15;-4.69;99.99
63051;SHT30;49136;47.416;19.402;2024-01-30T04:12:41;-4.65;99.99
63051;SHT30;49136;47.416;19.402;2024-01-30T04:15:06;-4.77;99.99
63051;SHT30;49136;47.416;19.402;2024-01-30T04:17:33;-4.76;99.99
63051;SHT30;49136;47.416;19.402;2024-01-30T04:19:58;-4.79;99.99
63051;SHT30;49136;47.416;19.402;2024-01-30T04:22:23;-4.79;99.99
63051;SHT30;49136;47.416;19.402;2024-01-30T04:24:52;-4.77;99.99
63051;SHT30;49136;47.416;19.402;2024-01-30T04:27:19;-4.80;99.99
63051;SHT30;49136;47.416;19.402;2024-01-30T04:29:45;-4.88;99.99
63051;SHT30;49136;47.416;19.402;2024-01-30T04:32:10;-4.81;99.99
63051;SHT30;49136;47.416;19.402;2024-01-30T04:34:36;-4.69;99.99
63051;SHT30;49136;47.416;19.402;2024-01-30T04:37:02;-4.57;99.99
63051;SHT30;49136;47.416;19.402;2024-01-30T04:39:27;-4.42;99.99
63051;SHT30;49136;47.416;19.402;2024-01-30T04:41:52;-4.36;99.99
63051;SHT30;49136;47.416;19.402;2024-01-30T04:44:18;-4.38;99.99
63051;SHT30;49136;47.416;19.402;2024-01-30T04:46:43;-4.50;99.99
63051;SHT30;49136;47.416;19.402;2024-01-30T04:49:09;-4.60;99.99
63051;SHT30;49136;47.416;19.402;2024-01-30T04:51:34;-4.57;99.99
63051;SHT30;49136;47.416;19.402;2024-01-30T04:53:59;-4.21;99.99
63051;SHT30;49136;47.416;19.402;2024-01-30T04:56:25;-4.31;99.99
63051;SHT30;49136;47.416;19.402;2024-01-30T04:58:50;-4.36;99.99
63051;SHT30;49136;47.416;19.402;2024-01-30T05:01:16;-4.31;99.99
63051;SHT30;49136;47.416;19.402;2024-01-30T05:03:42;-4.42;99.99
63051;SHT30;49136;47.416;19.402;2024-01-30T05:06:07;-4.39;99.99
63051;SHT30;49136;47.416;19.402;2024-01-30T05:08:32;-4.48;99.99
63051;SHT30;49136;47.416;19.402;2024-01-30T05:11:01;-4.57;99.99
63051;SHT30;49136;47.416;19.402;2024-01-30T05:13:31;-4.59;99.99
63051;SHT30;49136;47.416;19.402;2024-01-30T05:15:57;-4.56;99.99
63051;SHT30;49136;47.416;19.402;2024-01-30T05:18:22;-4.29;99.99
63051;SHT30;49136;47.416;19.402;2024-01-30T05:20:50;-4.35;99.99
63051;SHT30;49136;47.416;19.402;2024-01-30T05:23:15;-4.53;99.99
63051;SHT30;49136;47.416;19.402;2024-01-30T05:25:41;-4.59;99.99
63051;SHT30;49136;47.416;19.402;2024-01-30T05:28:06;-4.60;99.99
63051;SHT30;49136;47.416;19.402;2024-01-30T05:30:31;-4.66;99.99
63051;SHT30;49136;47.416;19.402;2024-01-30T05:32:57;-4.69;99.99
63051;SHT30;49136;47.416;19.402;2024-01-30T05:35:22;-4.76;99.99
63051;SHT30;49136;47.416;19.402;2024-01-30T05:37:48;-4.88;99.99
63051;SHT30;49136;47.416;19.402;2024-01-30T05:40:14;-4.83;99.99
63051;SHT30;49136;47.416;19.402;2024-01-30T05:42:40;-4.90;99.99
63051;SHT30;49136;47.416;19.402;2024-01-30T05:45:05;-4.63;99.99
63051;SHT30;49136;47.416;19.402;2024-01-30T05:47:31;-4.56;99.99
63051;SHT30;49136;47.416;19.402;2024-01-30T05:49:57;-4.29;99.99
63051;SHT30;49136;47.416;19.402;2024-01-30T05:52:22;-4.31;99.99
63051;SHT30;49136;47.416;19.402;2024-01-30T05:54:48;-4.31;99.99
63051;SHT30;49136;47.416;19.402;2024-01-30T05:57:13;-4.29;99.99
63051;SHT30;49136;47.416;19.402;2024-01-30T05:59:38;-4.46;99.99
63051;SHT30;49136;47.416;19.402;2024-01-30T06:02:04;-4.50;99.99
63051;SHT30;49136;47.416;19.402;2024-01-30T06:04:29;-4.59;99.99
63051;SHT30;49136;47.416;19.402;2024-01-30T06:06:55;-4.67;99.99
63051;SHT30;49136;47.416;19.402;2024-01-30T06:09:20;-4.60;99.99
63051;SHT30;49136;47.416;19.402;2024-01-30T06:11:46;-4.72;99.99
63051;SHT30;49136;47.416;19.402;2024-01-30T06:14:17;-4.73;99.99
63051;SHT30;49136;47.416;19.402;2024-01-30T06:16:42;-4.56;99.99
63051;SHT30;49136;47.416;19.402;2024-01-30T06:19:08;-4.53;99.99
63051;SHT30;49136;47.416;19.402;2024-01-30T06:21:33;-4.41;99.99
63051;SHT30;49136;47.416;19.402;2024-01-30T06:24:02;-4.31;99.99
63051;SHT30;49136;47.416;19.402;2024-01-30T06:26:27;-4.35;99.99
63051;SHT30;49136;47.416;19.402;2024-01-30T06:28:53;-4.36;99.99
63051;SHT30;49136;47.416;19.402;2024-01-30T06:31:18;-4.18;99.99
63051;SHT30;49136;47.416;19.402;2024-01-30T06:33:46;-4.00;99.99
63051;SHT30;49136;47.416;19.402;2024-01-30T06:36:12;-3.97;99.99
63051;SHT30;49136;47.416;19.402;2024-01-30T06:38:37;-4.04;99.99
63051;SHT30;49136;47.416;19.402;2024-01-30T06:41:03;-3.90;99.99
63051;SHT30;49136;47.416;19.402;2024-01-30T06:43:28;-3.85;99.99
63051;SHT30;49136;47.416;19.402;2024-01-30T06:45:54;-3.80;99.99
63051;SHT30;49136;47.416;19.402;2024-01-30T06:48:19;-3.73;99.99
63051;SHT30;49136;47.416;19.402;2024-01-30T06:50:44;-3.69;99.99
63051;SHT30;49136;47.416;19.402;2024-01-30T06:53:10;-3.58;99.99
63051;SHT30;49136;47.416;19.402;2024-01-30T06:55:36;-3.58;99.99
63051;SHT30;49136;47.416;19.402;2024-01-30T06:58:01;-3.55;99.99
63051;SHT30;49136;47.416;19.402;2024-01-30T07:00:26;-3.54;99.99
63051;SHT30;49136;47.416;19.402;2024-01-30T07:02:52;-3.52;99.99
63051;SHT30;49136;47.416;19.402;2024-01-30T07:05:18;-3.43;99.99
63051;SHT30;49136;47.416;19.402;2024-01-30T07:07:43;-3.41;99.99
63051;SHT30;49136;47.416;19.402;2024-01-30T07:10:09;-3.34;99.99
63051;SHT30;49136;47.416;19.402;2024-01-30T07:12:34;-3.20;99.99
63051;SHT30;49136;47.416;19.402;2024-01-30T07:14:59;-3.06;99.99
63051;SHT30;49136;47.416;19.402;2024-01-30T07:17:25;-3.00;99.99
63051;SHT30;49136;47.416;19.402;2024-01-30T07:19:50;-2.84;99.99
63051;SHT30;49136;47.416;19.402;2024-01-30T07:22:16;-2.72;99.99
63051;SHT30;49136;47.416;19.402;2024-01-30T07:24:44;-2.65;99.99
63051;SHT30;49136;47.416;19.402;2024-01-30T07:27:12;-2.57;99.99
63051;SHT30;49136;47.416;19.402;2024-01-30T07:29:38;-2.40;99.99
63051;SHT30;49136;47.416;19.402;2024-01-30T07:32:04;-2.37;99.99
63051;SHT30;49136;47.416;19.402;2024-01-30T07:34:29;-2.26;99.99
63051;SHT30;49136;47.416;19.402;2024-01-30T07:36:54;-2.19;99.99
63051;SHT30;49136;47.416;19.402;2024-01-30T07:39:20;-2.02;99.99
63051;SHT30;49136;47.416;19.402;2024-01-30T07:41:46;-1.99;99.99
63051;SHT30;49136;47.416;19.402;2024-01-30T07:44:11;-1.88;99.99
63051;SHT30;49136;47.416;19.402;2024-01-30T07:46:36;-1.82;99.99
63051;SHT30;49136;47.416;19.402;2024-01-30T07:49:02;-1.74;99.99
63051;SHT30;49136;47.416;19.402;2024-01-30T07:51:27;-1.63;99.99
63051;SHT30;49136;47.416;19.402;2024-01-30T07:53:54;-1.57;99.99
63051;SHT30;49136;47.416;19.402;2024-01-30T07:56:20;-1.46;99.99
63051;SHT30;49136;47.416;19.402;2024-01-30T07:58:45;-1.38;99.99
63051;SHT30;49136;47.416;19.402;2024-01-30T08:01:11;-1.24;99.99
63051;SHT30;49136;47.416;19.402;2024-01-30T08:03:36;-1.19;99.99
63051;SHT30;49136;47.416;19.402;2024-01-30T08:06:02;-1.08;99.99
63051;SHT30;49136;47.416;19.402;2024-01-30T08:08:28;-0.97;99.99
63051;SHT30;49136;47.416;19.402;2024-01-30T08:10:53;-0.84;99.99
63051;SHT30;49136;47.416;19.402;2024-01-30T08:13:19;-0.77;99.99
63051;SHT30;49136;47.416;19.402;2024-01-30T08:15:44;-0.69;99.99
63051;SHT30;49136;47.416;19.402;2024-01-30T08:18:10;-0.61;99.99
63051;SHT30;49136;47.416;19.402;2024-01-30T08:20:35;-0.48;99.99
63051;SHT30;49136;47.416;19.402;2024-01-30T08:23:00;-0.35;99.99
63051;SHT30;49136;47.416;19.402;2024-01-30T08:25:26;-0.22;99.99
63051;SHT30;49136;47.416;19.402;2024-01-30T08:27:51;-0.20;99.99
63051;SHT30;49136;47.416;19.402;2024-01-30T08:30:17;0.01;99.99
63051;SHT30;49136;47.416;19.402;2024-01-30T08:32:42;0.11;99.99
63051;SHT30;49136;47.416;19.402;2024-01-30T08:35:08;0.26;99.99
63051;SHT30;49136;47.416;19.402;2024-01-30T08:37:34;0.42;99.99
63051;SHT30;49136;47.416;19.402;2024-01-30T08:39:59;0.55;99.99
63051;SHT30;49136;47.416;19.402;2024-01-30T08:42:25;0.77;99.99
63051;SHT30;49136;47.416;19.402;2024-01-30T08:44:51;0.74;99.89
63051;SHT30;49136;47.416;19.402;2024-01-30T08:47:18;1.02;99.99
63051;SHT30;49136;47.416;19.402;2024-01-30T08:49:44;1.12;99.60
63051;SHT30;49136;47.416;19.402;2024-01-30T08:52:10;1.36;98.86
63051;SHT30;49136;47.416;19.402;2024-01-30T08:54:35;1.40;98.05
63051;SHT30;49136;47.416;19.402;2024-01-30T08:57:01;1.26;97.83
63051;SHT30;49136;47.416;19.402;2024-01-30T08:59:27;1.52;98.08
63051;SHT30;49136;47.416;19.402;2024-01-30T09:01:52;1.52;97.27
63051;SHT30;49136;47.416;19.402;2024-01-30T09:04:20;1.78;97.29
63051;SHT30;49136;47.416;19.402;2024-01-30T09:06:46;1.89;96.92
63051;SHT30;49136;47.416;19.402;2024-01-30T09:09:11;2.25;96.75
63051;SHT30;49136;47.416;19.402;2024-01-30T09:11:37;2.28;95.46
63051;SHT30;49136;47.416;19.402;2024-01-30T09:14:02;2.43;95.48
63051;SHT30;49136;47.416;19.402;2024-01-30T09:16:28;2.61;94.91
63051;SHT30;49136;47.416;19.402;2024-01-30T09:18:53;2.82;94.50
63051;SHT30;49136;47.416;19.402;2024-01-30T09:21:19;2.66;94.11
63051;SHT30;49136;47.416;19.402;2024-01-30T09:23:44;2.74;94.06
63051;SHT30;49136;47.416;19.402;2024-01-30T09:26:10;2.77;93.91
63051;SHT30;49136;47.416;19.402;2024-01-30T09:28:35;3.20;94.24
63051;SHT30;49136;47.416;19.402;2024-01-30T09:31:01;2.98;93.01
63051;SHT30;49136;47.416;19.402;2024-01-30T09:33:26;3.31;92.97
63051;SHT30;49136;47.416;19.402;2024-01-30T09:35:51;3.61;92.73
63051;SHT30;49136;47.416;19.402;2024-01-30T09:38:17;3.87;91.71
63051;SHT30;49136;47.416;19.402;2024-01-30T09:40:42;4.22;91.37
63051;SHT30;49136;47.416;19.402;2024-01-30T09:43:09;4.34;90.61
63051;SHT30;49136;47.416;19.402;2024-01-30T09:45:39;4.68;90.24
63051;SHT30;49136;47.416;19.402;2024-01-30T09:48:05;5.00;89.32
63051;SHT30;49136;47.416;19.402;2024-01-30T09:50:31;5.03;88.68
63051;SHT30;49136;47.416;19.402;2024-01-30T09:52:58;5.04;88.82
63051;SHT30;49136;47.416;19.402;2024-01-30T09:55:24;5.18;88.06
63051;SHT30;49136;47.416;19.402;2024-01-30T09:57:50;5.10;88.43
63051;SHT30;49136;47.416;19.402;2024-01-30T10:00:15;5.38;88.76
63051;SHT30;49136;47.416;19.402;2024-01-30T10:02:41;5.32;86.99
63051;SHT30;49136;47.416;19.402;2024-01-30T10:05:08;5.59;87.85
63051;SHT30;49136;47.416;19.402;2024-01-30T10:07:33;5.66;87.50
63051;SHT30;49136;47.416;19.402;2024-01-30T10:09:59;5.59;86.57
63051;SHT30;49136;47.416;19.402;2024-01-30T10:12:29;5.66;86.69
63051;SHT30;49136;47.416;19.402;2024-01-30T10:14:56;5.97;86.52
63051;SHT30;49136;47.416;19.402;2024-01-30T10:17:25;5.70;86.17
63051;SHT30;49136;47.416;19.402;2024-01-30T10:19:50;5.57;86.82
63051;SHT30;49136;47.416;19.402;2024-01-30T10:22:17;5.59;86.66
63051;SHT30;49136;47.416;19.402;2024-01-30T10:24:42;5.88;86.48
63051;SHT30;49136;47.416;19.402;2024-01-30T10:27:10;6.25;88.30
63051;SHT30;49136;47.416;19.402;2024-01-30T10:29:37;6.21;85.77
63051;SHT30;49136;47.416;19.402;2024-01-30T10:32:04;5.93;85.15
63051;SHT30;49136;47.416;19.402;2024-01-30T10:34:30;6.36;84.81
63051;SHT30;49136;47.416;19.402;2024-01-30T10:37:16;6.09;85.11
63051;SHT30;49136;47.416;19.402;2024-01-30T10:39:44;6.61;85.04
63051;SHT30;49136;47.416;19.402;2024-01-30T10:42:17;6.34;84.25
63051;SHT30;49136;47.416;19.402;2024-01-30T10:47:12;6.44;83.23
63051;SHT30;49136;47.416;19.402;2024-01-30T10:49:41;6.32;84.08
63051;SHT30;49136;47.416;19.402;2024-01-30T10:52:13;6.18;83.90
63051;SHT30;49136;47.416;19.402;2024-01-30T10:54:40;6.22;84.33
63051;SHT30;49136;47.416;19.402;2024-01-30T10:57:05;6.32;84.21
63051;SHT30;49136;47.416;19.402;2024-01-30T10:59:31;6.63;84.74
63051;SHT30;49136;47.416;19.402;2024-01-30T11:01:59;6.84;83.01
63051;SHT30;49136;47.416;19.402;2024-01-30T11:04:24;7.17;82.13
63051;SHT30;49136;47.416;19.402;2024-01-30T11:06:50;7.13;82.75
63051;SHT30;49136;47.416;19.402;2024-01-30T11:09:17;7.31;81.90
63051;SHT30;49136;47.416;19.402;2024-01-30T11:11:58;7.03;81.72
63051;SHT30;49136;47.416;19.402;2024-01-30T11:14:29;7.13;81.80
63051;SHT30;49136;47.416;19.402;2024-01-30T11:16:58;6.98;81.37
63051;SHT30;49136;47.416;19.402;2024-01-30T11:19:30;6.99;81.83
63051;SHT30;49136;47.416;19.402;2024-01-30T11:21:56;6.95;82.48
63051;SHT30;49136;47.416;19.402;2024-01-30T11:24:24;6.71;81.69
63051;SHT30;49136;47.416;19.402;2024-01-30T11:26:56;6.21;82.84
63051;SHT30;49136;47.416;19.402;2024-01-30T11:29:27;6.36;83.98
63051;SHT30;49136;47.416;19.402;2024-01-30T11:31:56;6.64;83.71
63051;SHT30;49136;47.416;19.402;2024-01-30T11:34:22;6.85;82.86
63051;SHT30;49136;47.416;19.402;2024-01-30T11:36:59;6.87;81.60
63051;SHT30;49136;47.416;19.402;2024-01-30T11:39:27;7.13;82.21
63051;SHT30;49136;47.416;19.402;2024-01-30T11:41:55;7.10;81.46
63051;SHT30;49136;47.416;19.402;2024-01-30T11:44:21;6.85;82.49
63051;SHT30;49136;47.416;19.402;2024-01-30T11:46:51;6.84;81.73
63051;SHT30;49136;47.416;19.402;2024-01-30T11:49:17;6.80;81.49
63051;SHT30;49136;47.416;19.402;2024-01-30T11:51:45;6.92;82.11
63051;SHT30;49136;47.416;19.402;2024-01-30T11:54:14;7.08;81.35
63051;SHT30;49136;47.416;19.402;2024-01-30T11:56:39;6.99;80.50
63051;SHT30;49136;47.416;19.402;2024-01-30T11:59:04;6.91;81.63
63051;SHT30;49136;47.416;19.402;2024-01-30T12:01:31;6.92;81.76
63051;SHT30;49136;47.416;19.402;2024-01-30T12:03:58;7.20;81.17
63051;SHT30;49136;47.416;19.402;2024-01-30T12:06:23;7.37;80.41
63051;SHT30;49136;47.416;19.402;2024-01-30T12:09:00;7.46;81.23
63051;SHT30;49136;47.416;19.402;2024-01-30T12:11:26;7.65;80.96
63051;SHT30;49136;47.416;19.402;2024-01-30T12:13:53;7.24;80.14
63051;SHT30;49136;47.416;19.402;2024-01-30T12:16:19;7.59;80.67
63051;SHT30;49136;47.416;19.402;2024-01-30T12:18:45;7.58;79.86
63051;SHT30;49136;47.416;19.402;2024-01-30T12:21:10;7.82;79.43
63051;SHT30;49136;47.416;19.402;2024-01-30T12:23:36;7.67;79.72
63051;SHT30;49136;47.416;19.402;2024-01-30T12:26:02;7.48;79.63
63051;SHT30;49136;47.416;19.402;2024-01-30T12:28:35;6.81;79.86
63051;SHT30;49136;47.416;19.402;2024-01-30T12:31:03;6.84;80.58
63051;SHT30;49136;47.416;19.402;2024-01-30T12:33:29;6.71;80.35
63051;SHT30;49136;47.416;19.402;2024-01-30T12:35:56;6.88;81.66
63051;SHT30;49136;47.416;19.402;2024-01-30T12:38:22;7.46;81.91
63051;SHT30;49136;47.416;19.402;2024-01-30T12:40:49;7.57;79.29
63051;SHT30;49136;47.416;19.402;2024-01-30T12:43:14;7.78;78.86
63051;SHT30;49136;47.416;19.402;2024-01-30T12:45:41;7.38;79.35
63051;SHT30;49136;47.416;19.402;2024-01-30T12:48:07;6.82;79.31
63051;SHT30;49136;47.416;19.402;2024-01-30T12:50:32;6.98;80.69
63051;SHT30;49136;47.416;19.402;2024-01-30T12:52:58;6.95;78.53
63051;SHT30;49136;47.416;19.402;2024-01-30T12:55:24;7.08;79.21
63051;SHT30;49136;47.416;19.402;2024-01-30T12:57:50;6.67;79.81
63051;SHT30;49136;47.416;19.402;2024-01-30T13:00:16;6.99;80.02
63051;SHT30;49136;47.416;19.402;2024-01-30T13:02:42;7.37;79.46
63051;SHT30;49136;47.416;19.402;2024-01-30T13:05:10;7.31;79.00
63051;SHT30;49136;47.416;19.402;2024-01-30T13:07:36;7.57;79.20
63051;SHT30;49136;47.416;19.402;2024-01-30T13:10:02;7.50;77.25
63051;SHT30;49136;47.416;19.402;2024-01-30T13:12:29;7.35;77.09
63051;SHT30;49136;47.416;19.402;2024-01-30T13:14:55;6.92;76.96
63051;SHT30;49136;47.416;19.402;2024-01-30T13:17:20;7.05;77.33
63051;SHT30;49136;47.416;19.402;2024-01-30T13:19:46;7.20;76.98
63051;SHT30;49136;47.416;19.402;2024-01-30T13:22:13;7.17;76.86
63051;SHT30;49136;47.416;19.402;2024-01-30T13:24:39;7.26;76.94
63051;SHT30;49136;47.416;19.402;2024-01-30T13:27:06;6.89;75.62
63051;SHT30;49136;47.416;19.402;2024-01-30T13:29:32;6.63;76.67
63051;SHT30;49136;47.416;19.402;2024-01-30T13:31:57;6.73;76.91
63051;SHT30;49136;47.416;19.402;2024-01-30T13:34:22;6.81;76.58
63051;SHT30;49136;47.416;19.402;2024-01-30T13:36:48;6.95;76.10
63051;SHT30;49136;47.416;19.402;2024-01-30T13:39:14;6.88;77.06
63051;SHT30;49136;47.416;19.402;2024-01-30T13:41:41;6.98;76.97
63051;SHT30;49136;47.416;19.402;2024-01-30T13:44:07;6.92;75.59
63051;SHT30;49136;47.416;19.402;2024-01-30T13:46:34;6.87;75.09
63051;SHT30;49136;47.416;19.402;2024-01-30T13:48:59;6.60;74.35
63051;SHT30;49136;47.416;19.402;2024-01-30T13:51:25;6.64;74.58
63051;SHT30;49136;47.416;19.402;2024-01-30T13:53:51;6.67;75.02
63051;SHT30;49136;47.416;19.402;2024-01-30T13:56:16;6.71;74.65
63051;SHT30;49136;47.416;19.402;2024-01-30T13:58:41;6.67;74.57
63051;SHT30;49136;47.416;19.402;2024-01-30T14:01:07;6.65;73.51
63051;SHT30;49136;47.416;19.402;2024-01-30T14:03:32;6.74;73.38
63051;SHT30;49136;47.416;19.402;2024-01-30T14:05:58;6.53;74.33
63051;SHT30;49136;47.416;19.402;2024-01-30T14:08:24;6.36;74.69
63051;SHT30;49136;47.416;19.402;2024-01-30T14:10:52;6.23;75.98
63051;SHT30;49136;47.416;19.402;2024-01-30T14:13:17;6.22;77.25
63051;SHT30;49136;47.416;19.402;2024-01-30T14:15:43;6.14;77.05
63051;SHT30;49136;47.416;19.402;2024-01-30T14:18:08;6.18;76.21
63051;SHT30;49136;47.416;19.402;2024-01-30T14:20:34;5.98;75.61
63051;SHT30;49136;47.416;19.402;2024-01-30T14:22:59;5.99;76.47
63051;SHT30;49136;47.416;19.402;2024-01-30T14:25:25;5.97;76.08
63051;SHT30;49136;47.416;19.402;2024-01-30T14:27:51;6.02;76.66
63051;SHT30;49136;47.416;19.402;2024-01-30T14:30:17;6.08;76.33
63051;SHT30;49136;47.416;19.402;2024-01-30T14:32:42;5.78;76.82
63051;SHT30;49136;47.416;19.402;2024-01-30T14:35:10;5.62;77.65
63051;SHT30;49136;47.416;19.402;2024-01-30T14:37:36;5.53;78.79
63051;SHT30;49136;47.416;19.402;2024-01-30T14:40:02;5.53;78.41
63051;SHT30;49136;47.416;19.402;2024-01-30T14:42:28;5.40;78.68
63051;SHT30;49136;47.416;19.402;2024-01-30T14:44:56;5.29;79.20
63051;SHT30;49136;47.416;19.402;2024-01-30T14:47:22;5.17;79.61
63051;SHT30;49136;47.416;19.402;2024-01-30T14:49:47;5.12;79.86
63051;SHT30;49136;47.416;19.402;2024-01-30T14:52:13;5.12;80.02
63051;SHT30;49136;47.416;19.402;2024-01-30T14:54:39;4.98;80.36
63051;SHT30;49136;47.416;19.402;2024-01-30T14:57:04;4.93;81.42
63051;SHT30;49136;47.416;19.402;2024-01-30T14:59:30;4.79;82.31
63051;SHT30;49136;47.416;19.402;2024-01-30T15:01:59;4.65;83.53
63051;SHT30;49136;47.416;19.402;2024-01-30T15:04:24;4.51;84.28
63051;SHT30;49136;47.416;19.402;2024-01-30T15:06:50;4.55;84.59
63051;SHT30;49136;47.416;19.402;2024-01-30T15:09:15;4.42;85.51
63051;SHT30;49136;47.416;19.402;2024-01-30T15:11:43;4.21;86.57
63051;SHT30;49136;47.416;19.402;2024-01-30T15:14:09;4.07;87.31
63051;SHT30;49136;47.416;19.402;2024-01-30T15:16:34;3.93;88.02
63051;SHT30;49136;47.416;19.402;2024-01-30T15:19:00;3.76;88.49